Earendil — FAE4542 — position and weather

sailwx.info

Track history (hours):
 
Tides and Currents Weather Stations Pressure Air Temp Water Temp Dewpoint Dewpoint Depression Visibility Wind Speed Wind Dir Waves Ship Positions

Earendil

Last reported at 2018-May-08 17:39 UTC. Time now 2018-May-25 05:30 UTC.
Position N 48°39' W 002°49'.
Warning: this ship's position is 16 days out of date.

Length 13 m.

Type: Sailing vessel. MMSI: 227477470.

Date/timePositionNaut miles runAvg speedWind from/ knotsBaromVisibWave heightAir tempDewpointWater temp
2018-May-08 17:39N 48°39' W 002°49'0 1.4
2018-May-08 17:24N 48°39' W 002°49'2 4.6
2018-May-08 16:59N 48°41' W 002°50'12 2.9
2018-May-08 13:03N 48°50' W 002°60'0 1.6
2018-May-08 12:59N 48°50' W 002°60'  
2018-May-05 12:08N 48°55' W 002°57'24 5.0
2018-May-05 07:24N 49°15' W 002°35'2 5.5
2018-May-05 07:00N 49°17' W 002°34'3 5.6
2018-May-05 06:29N 49°19' W 002°32'3 6.0
2018-May-05 05:57N 49°22' W 002°29'4 7.3
2018-May-05 05:26N 49°25' W 002°27'4 8.2
2018-May-05 05:00N 49°28' W 002°24'4 7.8
2018-May-05 04:30N 49°32' W 002°21'4 7.5
2018-May-05 03:55N 49°36' W 002°19'3 7.3
2018-May-05 03:30N 49°39' W 002°18'3 6.7
2018-May-05 03:00N 49°42' W 002°16'3 0.2
2018-May-04 11:06N 49°44' W 002°12'0 2.3
2018-May-04 10:59N 49°44' W 002°12'5 6.8
2018-May-04 10:18N 49°41' W 002°17'3 7.7
2018-May-04 09:51N 49°38' W 002°20'13 0.6
2018-May-03 12:20N 49°27' W 002°32'1 3.1
2018-May-03 12:00N 49°27' W 002°31'3 5.4
2018-May-03 11:30N 49°24' W 002°29'  
Track history (hours):
 
Tides and Currents Weather Stations Pressure Air Temp Water Temp Dewpoint Dewpoint Depression Visibility Wind Speed Wind Dir Waves Ship Positions

Earendil

Last reported at 2018-May-08 17:39 UTC. Time now 2018-May-25 05:30 UTC.
Position N 48°39' W 002°49'.
Warning: this ship's position is 16 days out of date.

Length 13 m.

Type: Sailing vessel. MMSI: 227477470.

Date/timePositionNaut miles runAvg speedWind from/ knotsBaromVisibWave heightAir tempDewpointWater temp
2018-May-08 17:39N 48°39' W 002°49'0 1.4
2018-May-08 17:24N 48°39' W 002°49'2 4.6
2018-May-08 16:59N 48°41' W 002°50'12 2.9
2018-May-08 13:03N 48°50' W 002°60'0 1.6
2018-May-08 12:59N 48°50' W 002°60'  
2018-May-05 12:08N 48°55' W 002°57'24 5.0
2018-May-05 07:24N 49°15' W 002°35'2 5.5
2018-May-05 07:00N 49°17' W 002°34'3 5.6
2018-May-05 06:29N 49°19' W 002°32'3 6.0
2018-May-05 05:57N 49°22' W 002°29'4 7.3
2018-May-05 05:26N 49°25' W 002°27'4 8.2
2018-May-05 05:00N 49°28' W 002°24'4 7.8
2018-May-05 04:30N 49°32' W 002°21'4 7.5
2018-May-05 03:55N 49°36' W 002°19'3 7.3
2018-May-05 03:30N 49°39' W 002°18'3 6.7
2018-May-05 03:00N 49°42' W 002°16'3 0.2
2018-May-04 11:06N 49°44' W 002°12'0 2.3
2018-May-04 10:59N 49°44' W 002°12'5 6.8
2018-May-04 10:18N 49°41' W 002°17'3 7.7
2018-May-04 09:51N 49°38' W 002°20'13 0.6
2018-May-03 12:20N 49°27' W 002°32'1 3.1
2018-May-03 12:00N 49°27' W 002°31'3 5.4
2018-May-03 11:30N 49°24' W 002°29'  

Dump ship's entire track history